createdAt,value
2018-11-21T00:01:59.425Z,71.40
2018-11-21T00:04:28.164Z,71.33
2018-11-21T00:06:56.767Z,71.36
2018-11-21T00:09:25.380Z,71.26
2018-11-21T00:11:53.815Z,71.15
2018-11-21T00:14:22.418Z,71.16
2018-11-21T00:16:50.866Z,71.24
2018-11-21T00:19:25.094Z,71.22
2018-11-21T00:21:53.471Z,71.18
2018-11-21T00:24:21.888Z,71.12
2018-11-21T00:27:09.348Z,71.08
2018-11-21T00:30:05.031Z,71.10
2018-11-21T00:32:22.252Z,71.11
2018-11-21T00:34:51.594Z,71.03
2018-11-21T00:37:20.981Z,71.00
2018-11-21T00:39:49.713Z,71.03
2018-11-21T00:42:18.170Z,70.92
2018-11-21T00:44:46.660Z,70.99
2018-11-21T00:47:18.052Z,71.03
2018-11-21T00:49:46.460Z,71.00
2018-11-21T00:52:17.913Z,71.00
2018-11-21T00:54:46.402Z,71.01
2018-11-21T00:57:14.804Z,71.02
2018-11-21T00:59:43.722Z,71.06
2018-11-21T01:02:12.140Z,71.09
2018-11-21T01:04:46.103Z,71.10
2018-11-21T01:07:24.701Z,71.13
2018-11-21T01:09:59.142Z,71.18
2018-11-21T01:12:27.526Z,71.27
2018-11-21T01:14:58.782Z,71.37
2018-11-21T01:17:27.196Z,71.39
2018-11-21T01:20:01.712Z,71.43
2018-11-21T01:22:30.137Z,71.44
2018-11-21T01:25:04.136Z,71.46
2018-11-21T01:27:32.541Z,71.53
2018-11-21T01:30:01.004Z,71.55
2018-11-21T01:32:29.674Z,71.53
2018-11-21T01:34:58.081Z,71.51
2018-11-21T01:37:26.450Z,71.55
2018-11-21T01:40:00.942Z,71.59
2018-11-21T01:42:29.360Z,71.61
2018-11-21T01:44:57.753Z,71.66
2018-11-21T01:47:26.609Z,71.58
2018-11-21T01:49:55.247Z,71.65
2018-11-21T01:52:26.794Z,71.35
2018-11-21T01:54:55.202Z,71.35
2018-11-21T01:57:38.881Z,71.74
2018-11-21T02:00:09.307Z,71.76
2018-11-21T02:02:37.838Z,71.83
2018-11-21T02:05:06.825Z,71.97
2018-11-21T02:07:35.420Z,72.10
2018-11-21T02:10:03.877Z,72.12
2018-11-21T02:12:38.157Z,72.10
2018-11-21T02:15:06.870Z,72.06
2018-11-21T02:17:35.343Z,72.10
2018-11-21T02:20:03.773Z,72.10
2018-11-21T02:22:35.106Z,72.13
2018-11-21T02:25:03.713Z,72.12
2018-11-21T02:27:35.308Z,72.05
2018-11-21T02:30:03.903Z,72.08
2018-11-21T02:32:32.293Z,71.96
2018-11-21T02:35:00.856Z,71.87
2018-11-21T02:37:29.236Z,71.85
2018-11-21T02:40:15.991Z,71.93
2018-11-21T02:42:44.382Z,71.93
2018-11-21T02:45:12.796Z,71.94
2018-11-21T02:47:41.217Z,71.97
2018-11-21T02:50:09.781Z,71.97
2018-11-21T02:52:41.419Z,72.09
2018-11-21T02:55:09.851Z,72.16
2018-11-21T02:57:47.327Z,72.18
2018-11-21T03:00:18.276Z,72.14
2018-11-21T03:02:46.816Z,72.16
2018-11-21T03:05:15.316Z,72.20
2018-11-21T03:07:53.963Z,72.23
2018-11-21T03:10:30.739Z,72.18
2018-11-21T03:12:59.155Z,72.16
2018-11-21T03:15:33.640Z,72.19
2018-11-21T03:18:04.974Z,72.11
2018-11-21T03:20:33.402Z,72.08
2018-11-21T03:23:01.846Z,72.07
2018-11-21T03:25:30.243Z,72.15
2018-11-21T03:28:16.808Z,72.22
2018-11-21T03:30:45.526Z,72.24
2018-11-21T03:33:20.168Z,72.18
2018-11-21T03:35:54.615Z,72.24
2018-11-21T03:38:23.050Z,72.23
2018-11-21T03:40:51.798Z,72.28
2018-11-21T03:43:20.216Z,72.33
2018-11-21T03:45:48.597Z,72.33
2018-11-21T03:48:17.020Z,72.35
2018-11-21T03:50:45.536Z,72.47
2018-11-21T03:53:14.052Z,72.52
2018-11-21T03:55:42.434Z,72.46
2018-11-21T03:58:13.825Z,72.55
2018-11-21T04:00:42.236Z,72.58
2018-11-21T04:03:22.879Z,72.52
2018-11-21T04:05:51.730Z,72.54
2018-11-21T04:08:42.649Z,72.53
2018-11-21T04:11:07.923Z,72.59
2018-11-21T04:13:36.322Z,72.60
2018-11-21T04:16:05.062Z,72.69
2018-11-21T04:18:36.442Z,72.68
2018-11-21T04:21:05.237Z,72.66
2018-11-21T04:23:36.766Z,72.70
2018-11-21T04:26:20.483Z,72.75
2018-11-21T04:28:58.086Z,72.75
2018-11-21T04:31:26.495Z,72.72
2018-11-21T04:33:55.114Z,72.76
2018-11-21T04:36:23.518Z,72.81
2018-11-21T04:38:51.955Z,72.80
2018-11-21T04:41:20.644Z,72.86
2018-11-21T04:43:49.071Z,72.90
2018-11-21T04:46:17.511Z,72.90
2018-11-21T04:48:45.989Z,72.89
2018-11-21T04:51:14.373Z,72.86
2018-11-21T04:53:42.807Z,72.82
2018-11-21T04:56:11.205Z,72.91
2018-11-21T04:58:39.750Z,72.84
2018-11-21T05:01:14.114Z,72.94
2018-11-21T05:03:42.511Z,73.02
2018-11-21T05:06:10.891Z,73.13
2018-11-21T05:08:39.295Z,73.16
2018-11-21T05:11:13.990Z,73.14
2018-11-21T05:13:42.421Z,73.14
2018-11-21T05:16:10.909Z,73.05
2018-11-21T05:18:48.355Z,73.21
2018-11-21T05:21:16.757Z,73.21
2018-11-21T05:23:45.371Z,73.26
2018-11-21T05:26:13.763Z,73.33
2018-11-21T05:28:42.370Z,73.27
2018-11-21T05:31:10.759Z,73.35
2018-11-21T05:33:43.373Z,73.39
2018-11-21T05:36:11.754Z,73.32
2018-11-21T05:38:40.176Z,73.37
2018-11-21T05:41:14.248Z,73.34
2018-11-21T05:43:48.474Z,73.26
2018-11-21T05:46:24.271Z,73.18
2018-11-21T05:48:52.761Z,73.15
2018-11-21T05:51:40.516Z,73.12
2018-11-21T05:54:09.086Z,73.23
2018-11-21T05:56:37.536Z,73.22
2018-11-21T05:59:12.325Z,73.34
2018-11-21T06:01:47.145Z,73.37
2018-11-21T06:04:21.833Z,73.65
2018-11-21T06:06:50.270Z,73.75
2018-11-21T06:09:18.673Z,74.12
2018-11-21T06:11:47.105Z,73.94
2018-11-21T06:14:15.562Z,73.90
2018-11-21T06:16:50.218Z,73.93
2018-11-21T06:19:18.627Z,73.95
2018-11-21T06:21:56.615Z,74.04
2018-11-21T06:24:25.054Z,74.08
2018-11-21T06:27:00.664Z,74.10
2018-11-21T06:29:29.239Z,74.13
2018-11-21T06:31:57.919Z,74.17
2018-11-21T06:34:29.147Z,74.20
2018-11-21T06:37:00.830Z,74.15
2018-11-21T06:39:29.272Z,74.33
2018-11-21T06:41:57.743Z,74.31
2018-11-21T06:44:32.341Z,74.44
2018-11-21T06:47:01.039Z,74.48
2018-11-21T06:49:29.590Z,74.36
2018-11-21T06:51:58.378Z,74.52
2018-11-21T06:54:26.785Z,74.59
2018-11-21T06:57:03.940Z,74.47
2018-11-21T06:59:32.520Z,74.57
2018-11-21T07:02:01.218Z,74.65
2018-11-21T07:04:29.688Z,74.75
2018-11-21T07:07:04.023Z,74.80
2018-11-21T07:09:32.435Z,74.89
2018-11-21T07:12:09.807Z,74.98
2018-11-21T07:14:38.240Z,75.05
2018-11-21T07:17:12.339Z,75.04
2018-11-21T07:19:40.757Z,75.05
2018-11-21T07:22:09.224Z,75.00
2018-11-21T07:24:37.733Z,75.05
2018-11-21T07:27:06.251Z,75.14
2018-11-21T07:29:34.901Z,75.16
2018-11-21T07:32:03.705Z,75.20
2018-11-21T07:34:32.117Z,75.26
2018-11-21T07:37:00.722Z,75.26
2018-11-21T07:39:29.180Z,75.32
2018-11-21T07:41:57.605Z,75.39
2018-11-21T07:44:26.025Z,75.44
2018-11-21T07:46:54.449Z,75.54
2018-11-21T07:49:23.019Z,75.61
2018-11-21T07:51:57.680Z,75.71
2018-11-21T07:54:26.096Z,75.74
2018-11-21T07:57:34.075Z,75.76
2018-11-21T08:00:47.590Z,75.82
2018-11-21T08:03:16.282Z,75.78
2018-11-21T08:05:47.454Z,75.70
2018-11-21T08:08:56.437Z,75.83
2018-11-21T08:11:42.902Z,75.92
2018-11-21T08:14:28.891Z,75.79
2018-11-21T08:17:15.164Z,75.73
2018-11-21T08:20:11.571Z,75.82
2018-11-21T08:23:04.971Z,75.83
2018-11-21T08:26:10.581Z,75.84
2018-11-21T08:28:39.016Z,75.84
2018-11-21T08:31:07.464Z,75.81
2018-11-21T08:33:35.925Z,75.94
2018-11-21T08:36:04.650Z,76.03
2018-11-21T08:38:33.255Z,76.12
2018-11-21T08:41:01.916Z,76.18
2018-11-21T08:43:30.338Z,76.20
2018-11-21T08:46:11.063Z,76.21
2018-11-21T08:48:39.493Z,76.15
2018-11-21T08:51:08.212Z,76.21
2018-11-21T08:53:36.850Z,76.17
2018-11-21T08:56:14.417Z,76.11
2018-11-21T08:58:43.307Z,75.98
2018-11-21T09:01:11.617Z,75.97
2018-11-21T09:03:43.281Z,75.92
2018-11-21T09:06:11.856Z,75.84
2018-11-21T09:08:40.293Z,75.79
2018-11-21T09:11:09.245Z,75.84
2018-11-21T09:13:37.782Z,75.75
2018-11-21T09:16:06.295Z,75.70
2018-11-21T09:18:41.024Z,75.59
2018-11-21T09:21:09.917Z,75.48
2018-11-21T09:23:38.317Z,75.42
2018-11-21T09:26:07.104Z,75.42
2018-11-21T09:28:35.499Z,75.28
2018-11-21T09:31:33.825Z,75.12
2018-11-21T09:33:56.617Z,74.98
2018-11-21T09:39:14.689Z,74.92
2018-11-21T09:41:43.102Z,74.65
2018-11-21T09:44:23.885Z,74.55
2018-11-21T09:46:52.322Z,74.33
2018-11-21T09:49:20.769Z,74.20
2018-11-21T09:51:49.173Z,74.15
2018-11-21T09:54:17.933Z,73.93
2018-11-21T09:56:46.766Z,73.82
2018-11-21T09:59:15.210Z,73.51
2018-11-21T10:02:20.544Z,73.06
2018-11-21T10:04:49.117Z,72.72
2018-11-21T10:07:17.586Z,72.16
2018-11-21T10:09:47.935Z,71.70
2018-11-21T10:12:16.433Z,71.39
2018-11-21T10:14:47.759Z,71.00
2018-11-21T10:17:16.219Z,70.61
2018-11-21T10:19:44.683Z,70.12
2018-11-21T10:22:13.232Z,69.88
2018-11-21T10:24:44.688Z,69.64
2018-11-21T10:27:13.281Z,69.59
2018-11-21T10:29:41.657Z,69.13
2018-11-21T10:34:58.542Z,68.53
2018-11-21T10:37:27.023Z,67.97
2018-11-21T10:39:55.587Z,67.85
2018-11-21T10:42:24.012Z,67.50
2018-11-21T10:44:58.430Z,67.04
2018-11-21T10:47:26.846Z,66.92
2018-11-21T10:49:58.375Z,67.35
2018-11-21T10:52:31.635Z,67.26
2018-11-21T10:54:58.069Z,67.08
2018-11-21T10:57:38.422Z,66.98
2018-11-21T11:00:14.226Z,66.34
2018-11-21T11:02:58.012Z,66.58
2018-11-21T11:05:40.414Z,66.59
2018-11-21T11:08:39.791Z,66.27
2018-11-21T11:11:26.067Z,66.22
2018-11-21T11:14:16.568Z,66.05
2018-11-21T11:17:18.145Z,65.89
2018-11-21T11:20:08.613Z,66.12
2018-11-21T11:22:59.089Z,65.81
2018-11-21T11:26:10.826Z,66.03
2018-11-21T11:29:07.497Z,66.32
2018-11-21T11:31:57.954Z,66.35
2018-11-21T11:34:48.043Z,66.36
2018-11-21T11:37:34.430Z,66.22
2018-11-21T11:40:30.873Z,66.20
2018-11-21T11:43:15.763Z,66.38
2018-11-21T11:46:01.633Z,66.30
2018-11-21T11:48:47.277Z,66.25
2018-11-21T11:51:39.251Z,66.15
2018-11-21T11:54:25.286Z,65.80
2018-11-21T11:57:31.040Z,65.71
2018-11-21T12:00:29.836Z,65.71
2018-11-21T12:03:15.918Z,65.69
2018-11-21T12:06:02.450Z,65.98
2018-11-21T12:08:40.755Z,65.97
2018-11-21T12:11:31.098Z,65.98
2018-11-21T12:14:34.010Z,65.92
2018-11-21T12:17:27.593Z,65.88
2018-11-21T12:20:21.005Z,65.88
2018-11-21T12:23:14.471Z,66.03
2018-11-21T12:26:10.631Z,66.01
2018-11-21T12:29:07.078Z,65.86
2018-11-21T12:31:53.237Z,65.82
2018-11-21T12:34:40.739Z,65.82
2018-11-21T12:37:26.784Z,65.63
2018-11-21T12:40:04.511Z,65.59
2018-11-21T12:42:57.937Z,65.31
2018-11-21T12:45:54.069Z,65.10
2018-11-21T12:48:40.664Z,65.23
2018-11-21T12:51:31.119Z,65.46
2018-11-21T12:54:24.295Z,65.57
2018-11-21T12:57:23.559Z,65.84
2018-11-21T13:00:11.213Z,65.71
2018-11-21T13:03:01.373Z,65.67
2018-11-21T13:05:40.386Z,66.00
2018-11-21T13:08:43.006Z,66.03
2018-11-21T13:11:29.621Z,66.14
2018-11-21T13:14:32.450Z,66.15
2018-11-21T13:17:38.248Z,66.12
2018-11-21T13:20:26.534Z,66.17
2018-11-21T13:23:11.814Z,66.28
2018-11-21T13:26:01.731Z,66.36
2018-11-21T13:28:58.470Z,66.33
2018-11-21T13:31:50.744Z,66.38
2018-11-21T13:34:37.204Z,66.39
2018-11-21T13:37:31.109Z,66.35
2018-11-21T13:40:27.476Z,66.24
2018-11-21T13:43:17.913Z,66.37
2018-11-21T13:46:17.463Z,66.59
2018-11-21T13:49:25.970Z,66.44
2018-11-21T13:52:11.966Z,66.42
2018-11-21T13:55:00.201Z,66.52
2018-11-21T13:57:34.959Z,66.51
2018-11-21T14:00:03.999Z,66.51
2018-11-21T14:02:32.579Z,66.65
2018-11-21T14:05:07.212Z,66.80
2018-11-21T14:07:35.620Z,66.88
2018-11-21T14:10:05.600Z,67.03
2018-11-21T14:12:34.239Z,67.00
2018-11-21T14:15:08.801Z,67.06
2018-11-21T14:17:37.122Z,67.06
2018-11-21T14:20:10.905Z,67.17
2018-11-21T14:22:48.170Z,67.27
2018-11-21T14:25:16.663Z,67.40
2018-11-21T14:27:45.862Z,67.45
2018-11-21T14:30:36.540Z,67.57
2018-11-21T14:33:07.693Z,67.64
2018-11-21T14:35:36.146Z,67.82
2018-11-21T14:38:04.605Z,67.79
2018-11-21T14:40:33.060Z,67.60
2018-11-21T14:43:01.451Z,67.79
2018-11-21T14:45:29.994Z,67.87
2018-11-21T14:48:04.585Z,67.85
2018-11-21T14:50:39.177Z,67.89
2018-11-21T14:53:09.363Z,67.88
2018-11-21T14:55:43.465Z,67.98
2018-11-21T14:58:11.966Z,68.19
2018-11-21T15:00:40.427Z,68.29
2018-11-21T15:03:18.393Z,68.25
2018-11-21T15:05:42.994Z,68.25
2018-11-21T15:08:14.354Z,68.26
2018-11-21T15:10:42.765Z,68.27
2018-11-21T15:13:17.495Z,68.21
2018-11-21T15:15:45.916Z,68.28
2018-11-21T15:18:14.834Z,68.38
2018-11-21T15:20:46.136Z,68.58
2018-11-21T15:23:17.696Z,68.84
2018-11-21T15:25:46.253Z,68.93
2018-11-21T15:28:14.673Z,69.05
2018-11-21T15:30:49.022Z,69.18
2018-11-21T15:33:23.539Z,69.23
2018-11-21T15:35:52.023Z,69.25
2018-11-21T15:38:20.453Z,69.26
2018-11-21T15:40:48.950Z,69.26
2018-11-21T15:43:17.385Z,69.31
2018-11-21T15:45:52.072Z,69.26
2018-11-21T15:48:26.851Z,69.34
2018-11-21T15:51:01.508Z,69.45
2018-11-21T15:53:29.995Z,69.68
2018-11-21T15:56:04.211Z,69.70
2018-11-21T15:58:32.993Z,69.78
2018-11-21T16:01:01.549Z,69.86
2018-11-21T16:03:29.947Z,69.86
2018-11-21T16:06:04.281Z,69.88
2018-11-21T16:08:32.682Z,69.87
2018-11-21T16:11:01.420Z,70.09
2018-11-21T16:13:29.951Z,70.23
2018-11-21T16:16:01.231Z,70.24
2018-11-21T16:18:29.788Z,70.20
2018-11-21T16:21:03.948Z,70.17
2018-11-21T16:23:32.381Z,70.15
2018-11-21T16:26:00.908Z,70.17
2018-11-21T16:28:29.481Z,70.18
2018-11-21T16:30:58.097Z,70.22
2018-11-21T16:33:26.894Z,70.28
2018-11-21T16:36:04.059Z,70.30
2018-11-21T16:38:34.926Z,70.25
2018-11-21T16:41:04.935Z,70.36
2018-11-21T16:43:36.422Z,70.45
2018-11-21T16:46:04.901Z,70.44
2018-11-21T16:48:33.422Z,70.52
2018-11-21T16:51:07.839Z,70.50
2018-11-21T16:53:40.574Z,70.62
2018-11-21T16:56:12.560Z,70.61
2018-11-21T16:58:40.970Z,70.63
2018-11-21T17:01:09.394Z,70.63
2018-11-21T17:03:43.739Z,70.71
2018-11-21T17:06:12.386Z,70.75
2018-11-21T17:08:43.431Z,70.71
2018-11-21T17:11:18.087Z,70.74
2018-11-21T17:13:46.610Z,70.81
2018-11-21T17:16:15.128Z,70.99
2018-11-21T17:18:43.616Z,71.00
2018-11-21T17:21:12.106Z,71.11
2018-11-21T17:23:40.597Z,71.11
2018-11-21T17:26:09.341Z,71.10
2018-11-21T17:28:37.792Z,71.21
2018-11-21T17:31:09.003Z,71.28
2018-11-21T17:33:37.553Z,71.34
2018-11-21T17:36:12.190Z,71.45
2018-11-21T17:38:40.619Z,71.52
2018-11-21T17:41:09.091Z,71.54
2018-11-21T17:43:37.489Z,71.56
2018-11-21T17:46:12.178Z,71.57
2018-11-21T17:48:46.794Z,71.64
2018-11-21T17:51:15.494Z,71.61
2018-11-21T17:53:44.114Z,71.58
2018-11-21T17:56:15.606Z,71.57
2018-11-21T17:58:44.111Z,71.56
2018-11-21T18:01:12.780Z,71.67
2018-11-21T18:03:41.315Z,71.71
2018-11-21T18:06:09.758Z,71.84
2018-11-21T18:08:38.226Z,71.86
2018-11-21T18:11:12.530Z,71.92
2018-11-21T18:13:41.035Z,72.05
2018-11-21T18:16:09.849Z,72.10
2018-11-21T18:18:38.328Z,72.09
2018-11-21T18:21:06.737Z,72.22
2018-11-21T18:23:35.395Z,72.28
2018-11-21T18:26:03.834Z,72.90
2018-11-21T18:28:32.412Z,72.92
2018-11-21T18:31:00.833Z,73.04
2018-11-21T18:33:29.604Z,73.01
2018-11-21T18:36:10.225Z,73.02
2018-11-21T18:38:38.850Z,73.02
2018-11-21T18:41:07.484Z,72.99
2018-11-21T18:43:42.171Z,72.87
2018-11-21T18:46:10.605Z,72.84
2018-11-21T18:48:56.836Z,72.75
2018-11-21T18:51:25.407Z,72.66
2018-11-21T18:53:54.944Z,72.67
2018-11-21T18:57:03.070Z,72.59
2018-11-21T18:59:48.728Z,72.59
2018-11-21T19:02:26.521Z,72.44
2018-11-21T19:04:55.062Z,72.54
2018-11-21T19:07:23.491Z,72.49
2018-11-21T19:09:54.501Z,72.49
2018-11-21T19:12:26.664Z,72.46
2018-11-21T19:14:55.293Z,72.41
2018-11-21T19:17:29.744Z,72.33
2018-11-21T19:19:58.277Z,72.48
2018-11-21T19:22:26.779Z,72.46
2018-11-21T19:24:56.535Z,72.42
2018-11-21T19:27:26.696Z,72.41
2018-11-21T19:29:55.344Z,72.46
2018-11-21T19:32:24.067Z,72.56
2018-11-21T19:34:52.547Z,72.59
2018-11-21T19:37:21.062Z,72.73
2018-11-21T19:39:49.555Z,72.60
2018-11-21T19:42:26.817Z,72.63
2018-11-21T19:45:01.400Z,72.64
2018-11-21T19:47:29.918Z,72.61
2018-11-21T19:49:58.592Z,72.57
2018-11-21T19:52:27.080Z,72.51
2018-11-21T19:54:55.552Z,72.44
2018-11-21T19:57:30.040Z,72.32
2018-11-21T19:59:58.553Z,72.41
2018-11-21T20:02:27.196Z,72.50
2018-11-21T20:05:15.273Z,72.50
2018-11-21T20:07:50.140Z,72.46
2018-11-21T20:10:24.910Z,72.44
2018-11-21T20:12:53.596Z,72.31
2018-11-21T20:15:23.570Z,72.27
2018-11-21T20:17:53.949Z,72.18
2018-11-21T20:20:22.991Z,72.27
2018-11-21T20:22:53.969Z,72.23
2018-11-21T20:25:23.529Z,72.19
2018-11-21T20:28:09.389Z,72.25
2018-11-21T20:33:29.434Z,72.12
2018-11-21T20:36:00.106Z,72.15
2018-11-21T20:38:26.632Z,72.12
2018-11-21T20:40:55.470Z,72.11
2018-11-21T20:43:23.869Z,72.04
2018-11-21T20:45:52.360Z,72.00
2018-11-21T20:48:23.358Z,72.09
2018-11-21T20:50:52.036Z,72.12
2018-11-21T20:53:23.623Z,72.05
2018-11-21T20:55:52.105Z,72.08
2018-11-21T20:58:20.654Z,71.97
2018-11-21T21:00:49.130Z,72.28
2018-11-21T21:03:17.630Z,72.65
2018-11-21T21:05:46.145Z,72.63
2018-11-21T21:08:14.691Z,72.49
2018-11-21T21:10:47.211Z,72.19
2018-11-21T21:13:15.793Z,72.17
2018-11-21T21:15:44.545Z,72.18
2018-11-21T21:18:35.119Z,72.13
2018-11-21T21:21:03.656Z,72.01
2018-11-21T21:23:32.492Z,71.94
2018-11-21T21:26:02.136Z,71.96
2018-11-21T21:28:37.844Z,71.99
2018-11-21T21:31:06.380Z,71.83
2018-11-21T21:33:35.015Z,71.85
2018-11-21T21:36:03.548Z,71.86
2018-11-21T21:38:32.049Z,71.87
2018-11-21T21:41:00.462Z,71.91
2018-11-21T21:43:29.009Z,71.97
2018-11-21T21:45:57.466Z,71.98
2018-11-21T21:48:31.777Z,71.93
2018-11-21T21:51:00.203Z,71.89
2018-11-21T21:53:33.101Z,71.93
2018-11-21T21:56:02.356Z,71.92
2018-11-21T21:58:31.789Z,71.95
2018-11-21T22:01:01.449Z,71.98
2018-11-21T22:03:30.345Z,71.93
2018-11-21T22:05:59.977Z,71.86
2018-11-21T22:08:29.042Z,71.86
2018-11-21T22:10:58.282Z,72.08
2018-11-21T22:13:27.206Z,72.00
2018-11-21T22:15:55.666Z,71.99
2018-11-21T22:18:30.373Z,71.92
2018-11-21T22:20:58.809Z,71.88
2018-11-21T22:23:27.243Z,71.91
2018-11-21T22:26:04.965Z,71.90
2018-11-21T22:28:45.598Z,72.00
2018-11-21T22:31:14.095Z,72.07
2018-11-21T22:33:48.252Z,72.06
2018-11-21T22:36:16.707Z,72.06
2018-11-21T22:38:45.265Z,72.03
2018-11-21T22:41:35.940Z,72.00
2018-11-21T22:44:04.436Z,72.03
2018-11-21T22:46:32.822Z,71.87
2018-11-21T22:49:01.458Z,71.87
2018-11-21T22:51:30.220Z,71.67
2018-11-21T22:53:58.663Z,71.57
2018-11-21T22:56:27.148Z,71.55
2018-11-21T22:58:55.518Z,71.55
2018-11-21T23:04:20.381Z,71.96
2018-11-21T23:06:48.902Z,71.38
2018-11-21T23:09:17.441Z,71.30
2018-11-21T23:11:46.447Z,71.36
2018-11-21T23:14:15.010Z,71.34
2018-11-21T23:16:43.839Z,71.34
2018-11-21T23:19:12.247Z,71.34
2018-11-21T23:21:40.755Z,71.32
2018-11-21T23:24:09.189Z,71.32
2018-11-21T23:26:37.685Z,71.29
2018-11-21T23:29:11.959Z,71.23
2018-11-21T23:31:40.365Z,71.15
2018-11-21T23:34:08.899Z,71.06
2018-11-21T23:36:37.328Z,71.15
2018-11-21T23:39:07.826Z,71.11
2018-11-21T23:41:39.327Z,71.01
2018-11-21T23:44:07.720Z,70.97
2018-11-21T23:46:36.186Z,70.97
2018-11-21T23:49:04.730Z,71.01
2018-11-21T23:51:38.843Z,71.02
2018-11-21T23:54:15.498Z,70.98
2018-11-21T23:56:43.879Z,71.00
2018-11-21T23:59:12.515Z,70.93
